KRAC

Batten International Airport

Racine, Wisconsin, USA
METAR KRAC 211953Z AUTO 14003KT 1 1/4SM BR OVC003 03/02 A2993 RMK AO2 RAB09E50 SLP141 P0000 T00280022
Observed Flight Rules
Jan-21 @ 19:53 UTC (26 minutes ago) Instrument Flight Rules
Wind Visibility Clouds Conditions
140° at 3 knots 1 1/4 miles
  • Overcast at 300' AGL
  • Mist
Temperatures Readings Precipitation
Current 3°C / 37°F
Dewpoint 2°C / 36°F
Humidity 93%
Altimeter 29.93" Hg
Pressure 1014.1 hPa
Elevation 203
Current Rain 0.005
METAR KRAC 211953Z AUTO 14003KT 1 1/4SM BR OVC003 03/02 A2993 RMK AO2 RAB09E50 SLP141 P0000 T00280022
Observed Flight Rules
Jan-21 @ 19:53 UTC
(26 minutes ago)
LIFR
Wind Visibility
140° at 3 knots 1 1/4 miles
Clouds
  • Overcast at 300' AGL
Conditions
  • Mist
Temperature Dewpoint
3°C / 37°F 2°C / 36°F
Humidity Altimeter Pressure
93% 29.93" Hg 1014.1 hPa
Current Rain
0.005